sensor_id;sensor_type;location;lat;lon;timestamp;P1;durP1;ratioP1;P2;durP2;ratioP2
85820;SDS011;76265;50.102;8.854;2024-02-28T00:01:11;19.40;;;8.40;;
85820;SDS011;76265;50.102;8.854;2024-02-28T00:03:38;15.80;;;8.65;;
85820;SDS011;76265;50.102;8.854;2024-02-28T00:06:05;17.00;;;8.27;;
85820;SDS011;76265;50.102;8.854;2024-02-28T00:08:32;18.80;;;8.50;;
85820;SDS011;76265;50.102;8.854;2024-02-28T00:10:59;16.85;;;8.20;;
85820;SDS011;76265;50.102;8.854;2024-02-28T00:13:26;18.75;;;9.50;;
85820;SDS011;76265;50.102;8.854;2024-02-28T00:15:53;15.98;;;8.80;;
85820;SDS011;76265;50.102;8.854;2024-02-28T00:18:21;20.35;;;8.48;;
85820;SDS011;76265;50.102;8.854;2024-02-28T00:20:49;18.35;;;8.57;;
85820;SDS011;76265;50.102;8.854;2024-02-28T00:23:16;16.52;;;8.60;;
85820;SDS011;76265;50.102;8.854;2024-02-28T00:25:43;16.50;;;8.73;;
85820;SDS011;76265;50.102;8.854;2024-02-28T00:28:10;22.63;;;10.57;;
85820;SDS011;76265;50.102;8.854;2024-02-28T00:30:37;19.23;;;8.20;;
85820;SDS011;76265;50.102;8.854;2024-02-28T00:33:04;17.00;;;9.23;;
85820;SDS011;76265;50.102;8.854;2024-02-28T00:35:33;18.27;;;8.20;;
85820;SDS011;76265;50.102;8.854;2024-02-28T00:38:00;22.27;;;9.50;;
85820;SDS011;76265;50.102;8.854;2024-02-28T00:40:27;14.63;;;7.82;;
85820;SDS011;76265;50.102;8.854;2024-02-28T00:42:54;18.83;;;8.70;;
85820;SDS011;76265;50.102;8.854;2024-02-28T00:45:21;19.45;;;9.00;;
85820;SDS011;76265;50.102;8.854;2024-02-28T00:47:48;20.15;;;9.32;;
85820;SDS011;76265;50.102;8.854;2024-02-28T00:50:15;19.23;;;10.45;;
85820;SDS011;76265;50.102;8.854;2024-02-28T00:52:43;21.25;;;9.85;;
85820;SDS011;76265;50.102;8.854;2024-02-28T00:55:10;21.02;;;9.18;;
85820;SDS011;76265;50.102;8.854;2024-02-28T00:57:37;20.13;;;9.43;;
85820;SDS011;76265;50.102;8.854;2024-02-28T01:00:05;18.17;;;9.13;;
85820;SDS011;76265;50.102;8.854;2024-02-28T01:02:33;22.98;;;10.32;;
85820;SDS011;76265;50.102;8.854;2024-02-28T01:05:00;17.75;;;8.48;;
85820;SDS011;76265;50.102;8.854;2024-02-28T01:07:27;19.77;;;9.50;;
85820;SDS011;76265;50.102;8.854;2024-02-28T01:09:56;21.02;;;8.70;;
85820;SDS011;76265;50.102;8.854;2024-02-28T01:12:23;19.40;;;9.38;;
85820;SDS011;76265;50.102;8.854;2024-02-28T01:14:50;21.58;;;9.60;;
85820;SDS011;76265;50.102;8.854;2024-02-28T01:17:17;19.88;;;10.10;;
85820;SDS011;76265;50.102;8.854;2024-02-28T01:19:44;21.67;;;10.95;;
85820;SDS011;76265;50.102;8.854;2024-02-28T01:22:11;20.27;;;8.38;;
85820;SDS011;76265;50.102;8.854;2024-02-28T01:24:38;18.92;;;8.82;;
85820;SDS011;76265;50.102;8.854;2024-02-28T01:27:06;15.05;;;8.45;;
85820;SDS011;76265;50.102;8.854;2024-02-28T01:29:33;16.90;;;8.93;;
85820;SDS011;76265;50.102;8.854;2024-02-28T01:32:00;17.90;;;8.85;;
85820;SDS011;76265;50.102;8.854;2024-02-28T01:34:27;20.45;;;8.82;;
85820;SDS011;76265;50.102;8.854;2024-02-28T01:36:54;23.20;;;10.30;;
85820;SDS011;76265;50.102;8.854;2024-02-28T01:39:21;17.23;;;8.55;;
85820;SDS011;76265;50.102;8.854;2024-02-28T01:41:51;15.43;;;7.32;;
85820;SDS011;76265;50.102;8.854;2024-02-28T01:44:20;19.83;;;9.88;;
85820;SDS011;76265;50.102;8.854;2024-02-28T01:46:47;18.98;;;9.25;;
85820;SDS011;76265;50.102;8.854;2024-02-28T01:49:14;18.77;;;8.63;;
85820;SDS011;76265;50.102;8.854;2024-02-28T01:51:43;20.23;;;8.52;;
85820;SDS011;76265;50.102;8.854;2024-02-28T01:54:11;16.95;;;8.93;;
85820;SDS011;76265;50.102;8.854;2024-02-28T01:56:38;17.38;;;8.00;;
85820;SDS011;76265;50.102;8.854;2024-02-28T01:59:05;24.27;;;9.80;;
85820;SDS011;76265;50.102;8.854;2024-02-28T02:01:35;21.02;;;10.18;;
85820;SDS011;76265;50.102;8.854;2024-02-28T02:04:03;19.63;;;9.98;;
85820;SDS011;76265;50.102;8.854;2024-02-28T02:06:30;16.52;;;8.20;;
85820;SDS011;76265;50.102;8.854;2024-02-28T02:08:57;17.80;;;9.30;;
85820;SDS011;76265;50.102;8.854;2024-02-28T02:11:25;23.20;;;9.30;;
85820;SDS011;76265;50.102;8.854;2024-02-28T02:13:52;21.80;;;9.35;;
85820;SDS011;76265;50.102;8.854;2024-02-28T02:16:20;12.57;;;7.07;;
85820;SDS011;76265;50.102;8.854;2024-02-28T02:18:49;22.40;;;9.52;;
85820;SDS011;76265;50.102;8.854;2024-02-28T02:21:17;18.83;;;10.85;;
85820;SDS011;76265;50.102;8.854;2024-02-28T02:23:47;22.33;;;9.45;;
85820;SDS011;76265;50.102;8.854;2024-02-28T02:26:14;19.65;;;9.10;;
85820;SDS011;76265;50.102;8.854;2024-02-28T02:28:41;24.20;;;10.48;;
85820;SDS011;76265;50.102;8.854;2024-02-28T02:31:08;17.58;;;8.85;;
85820;SDS011;76265;50.102;8.854;2024-02-28T02:33:37;18.25;;;8.68;;
85820;SDS011;76265;50.102;8.854;2024-02-28T02:36:04;21.80;;;10.55;;
85820;SDS011;76265;50.102;8.854;2024-02-28T02:38:31;19.48;;;8.82;;
85820;SDS011;76265;50.102;8.854;2024-02-28T02:40:59;19.15;;;9.23;;
85820;SDS011;76265;50.102;8.854;2024-02-28T02:43:27;17.38;;;8.63;;
85820;SDS011;76265;50.102;8.854;2024-02-28T02:45:53;20.73;;;9.45;;
85820;SDS011;76265;50.102;8.854;2024-02-28T02:48:20;17.23;;;8.35;;
85820;SDS011;76265;50.102;8.854;2024-02-28T02:50:47;16.73;;;8.25;;
85820;SDS011;76265;50.102;8.854;2024-02-28T02:53:14;24.33;;;10.02;;
85820;SDS011;76265;50.102;8.854;2024-02-28T02:55:41;20.77;;;9.45;;
85820;SDS011;76265;50.102;8.854;2024-02-28T02:58:10;24.27;;;9.63;;
85820;SDS011;76265;50.102;8.854;2024-02-28T03:00:37;18.92;;;9.38;;
85820;SDS011;76265;50.102;8.854;2024-02-28T03:03:04;25.38;;;10.07;;
85820;SDS011;76265;50.102;8.854;2024-02-28T03:05:31;23.80;;;10.40;;
85820;SDS011;76265;50.102;8.854;2024-02-28T03:07:58;23.17;;;10.50;;
85820;SDS011;76265;50.102;8.854;2024-02-28T03:10:25;21.60;;;10.00;;
85820;SDS011;76265;50.102;8.854;2024-02-28T03:12:52;21.88;;;8.93;;
85820;SDS011;76265;50.102;8.854;2024-02-28T03:15:19;20.27;;;9.75;;
85820;SDS011;76265;50.102;8.854;2024-02-28T03:17:46;21.27;;;9.13;;
85820;SDS011;76265;50.102;8.854;2024-02-28T03:20:14;19.60;;;9.77;;
85820;SDS011;76265;50.102;8.854;2024-02-28T03:22:41;22.90;;;8.65;;
85820;SDS011;76265;50.102;8.854;2024-02-28T03:25:08;21.58;;;8.77;;
85820;SDS011;76265;50.102;8.854;2024-02-28T03:27:36;24.52;;;9.75;;
85820;SDS011;76265;50.102;8.854;2024-02-28T03:30:03;18.58;;;8.23;;
85820;SDS011;76265;50.102;8.854;2024-02-28T03:32:32;18.88;;;7.82;;
85820;SDS011;76265;50.102;8.854;2024-02-28T03:34:59;26.20;;;10.35;;
85820;SDS011;76265;50.102;8.854;2024-02-28T03:37:26;18.75;;;9.20;;
85820;SDS011;76265;50.102;8.854;2024-02-28T03:39:53;16.05;;;8.27;;
85820;SDS011;76265;50.102;8.854;2024-02-28T03:42:20;24.13;;;10.15;;
85820;SDS011;76265;50.102;8.854;2024-02-28T03:44:47;20.33;;;9.05;;
85820;SDS011;76265;50.102;8.854;2024-02-28T03:47:14;21.85;;;8.75;;
85820;SDS011;76265;50.102;8.854;2024-02-28T03:49:43;20.38;;;9.63;;
85820;SDS011;76265;50.102;8.854;2024-02-28T03:52:10;20.08;;;10.05;;
85820;SDS011;76265;50.102;8.854;2024-02-28T03:54:37;20.42;;;9.38;;
85820;SDS011;76265;50.102;8.854;2024-02-28T03:57:04;17.75;;;8.93;;
85820;SDS011;76265;50.102;8.854;2024-02-28T03:59:31;18.27;;;9.02;;
85820;SDS011;76265;50.102;8.854;2024-02-28T04:01:58;20.17;;;9.20;;
85820;SDS011;76265;50.102;8.854;2024-02-28T04:04:25;22.30;;;9.63;;
85820;SDS011;76265;50.102;8.854;2024-02-28T04:06:53;21.58;;;9.20;;
85820;SDS011;76265;50.102;8.854;2024-02-28T04:09:21;16.63;;;7.72;;
85820;SDS011;76265;50.102;8.854;2024-02-28T04:11:48;17.27;;;7.18;;
85820;SDS011;76265;50.102;8.854;2024-02-28T04:14:15;16.67;;;8.32;;
85820;SDS011;76265;50.102;8.854;2024-02-28T04:16:42;17.17;;;8.45;;
85820;SDS011;76265;50.102;8.854;2024-02-28T04:19:10;16.83;;;8.73;;
85820;SDS011;76265;50.102;8.854;2024-02-28T04:21:37;23.35;;;10.25;;
85820;SDS011;76265;50.102;8.854;2024-02-28T04:24:05;18.65;;;8.63;;
85820;SDS011;76265;50.102;8.854;2024-02-28T04:26:33;21.05;;;8.75;;
85820;SDS011;76265;50.102;8.854;2024-02-28T04:29:01;17.42;;;8.82;;
85820;SDS011;76265;50.102;8.854;2024-02-28T04:31:30;19.23;;;7.65;;
85820;SDS011;76265;50.102;8.854;2024-02-28T04:33:57;17.92;;;8.75;;
85820;SDS011;76265;50.102;8.854;2024-02-28T04:36:24;28.98;;;12.10;;
85820;SDS011;76265;50.102;8.854;2024-02-28T04:38:51;25.63;;;10.95;;
85820;SDS011;76265;50.102;8.854;2024-02-28T04:41:19;26.00;;;11.15;;
85820;SDS011;76265;50.102;8.854;2024-02-28T04:43:46;15.10;;;8.38;;
85820;SDS011;76265;50.102;8.854;2024-02-28T04:46:13;23.13;;;10.05;;
85820;SDS011;76265;50.102;8.854;2024-02-28T04:48:40;21.55;;;9.43;;
85820;SDS011;76265;50.102;8.854;2024-02-28T04:51:07;23.65;;;8.82;;
85820;SDS011;76265;50.102;8.854;2024-02-28T04:53:34;21.15;;;9.30;;
85820;SDS011;76265;50.102;8.854;2024-02-28T04:56:01;27.33;;;11.18;;
85820;SDS011;76265;50.102;8.854;2024-02-28T04:58:30;27.70;;;11.05;;
85820;SDS011;76265;50.102;8.854;2024-02-28T05:00:57;18.80;;;9.45;;
85820;SDS011;76265;50.102;8.854;2024-02-28T05:03:24;22.23;;;10.75;;
85820;SDS011;76265;50.102;8.854;2024-02-28T05:05:52;28.38;;;10.68;;
85820;SDS011;76265;50.102;8.854;2024-02-28T05:08:19;24.67;;;10.20;;
85820;SDS011;76265;50.102;8.854;2024-02-28T05:10:46;24.10;;;10.90;;
85820;SDS011;76265;50.102;8.854;2024-02-28T05:13:14;20.77;;;9.50;;
85820;SDS011;76265;50.102;8.854;2024-02-28T05:15:42;20.23;;;9.75;;
85820;SDS011;76265;50.102;8.854;2024-02-28T05:18:09;22.25;;;9.40;;
85820;SDS011;76265;50.102;8.854;2024-02-28T05:20:36;22.90;;;9.00;;
85820;SDS011;76265;50.102;8.854;2024-02-28T05:23:03;22.13;;;10.10;;
85820;SDS011;76265;50.102;8.854;2024-02-28T05:25:30;18.80;;;8.50;;
85820;SDS011;76265;50.102;8.854;2024-02-28T05:27:57;21.33;;;9.65;;
85820;SDS011;76265;50.102;8.854;2024-02-28T05:30:24;18.75;;;9.75;;
85820;SDS011;76265;50.102;8.854;2024-02-28T05:32:52;28.08;;;9.95;;
85820;SDS011;76265;50.102;8.854;2024-02-28T05:35:19;21.00;;;9.90;;
85820;SDS011;76265;50.102;8.854;2024-02-28T05:37:46;20.58;;;10.65;;
85820;SDS011;76265;50.102;8.854;2024-02-28T05:40:13;22.05;;;9.75;;
85820;SDS011;76265;50.102;8.854;2024-02-28T05:42:40;19.88;;;9.82;;
85820;SDS011;76265;50.102;8.854;2024-02-28T05:45:08;20.42;;;9.05;;
85820;SDS011;76265;50.102;8.854;2024-02-28T05:47:36;23.60;;;10.60;;
85820;SDS011;76265;50.102;8.854;2024-02-28T05:50:05;27.17;;;11.07;;
85820;SDS011;76265;50.102;8.854;2024-02-28T05:52:32;26.73;;;10.68;;
85820;SDS011;76265;50.102;8.854;2024-02-28T05:55:00;21.90;;;9.23;;
85820;SDS011;76265;50.102;8.854;2024-02-28T05:57:27;22.42;;;11.95;;
85820;SDS011;76265;50.102;8.854;2024-02-28T05:59:54;24.42;;;10.02;;
85820;SDS011;76265;50.102;8.854;2024-02-28T06:02:21;22.00;;;9.70;;
85820;SDS011;76265;50.102;8.854;2024-02-28T06:04:47;17.77;;;9.48;;
85820;SDS011;76265;50.102;8.854;2024-02-28T06:07:16;21.85;;;10.32;;
85820;SDS011;76265;50.102;8.854;2024-02-28T06:09:43;30.25;;;10.90;;
85820;SDS011;76265;50.102;8.854;2024-02-28T06:12:10;22.23;;;10.45;;
85820;SDS011;76265;50.102;8.854;2024-02-28T06:14:37;20.42;;;10.75;;
85820;SDS011;76265;50.102;8.854;2024-02-28T06:17:04;30.45;;;11.05;;
85820;SDS011;76265;50.102;8.854;2024-02-28T06:19:31;22.95;;;10.98;;
85820;SDS011;76265;50.102;8.854;2024-02-28T06:21:58;25.35;;;10.70;;
85820;SDS011;76265;50.102;8.854;2024-02-28T06:24:26;28.60;;;10.85;;
85820;SDS011;76265;50.102;8.854;2024-02-28T06:26:53;25.33;;;11.60;;
85820;SDS011;76265;50.102;8.854;2024-02-28T06:29:21;28.40;;;13.02;;
85820;SDS011;76265;50.102;8.854;2024-02-28T06:31:49;22.83;;;11.48;;
85820;SDS011;76265;50.102;8.854;2024-02-28T06:34:17;25.80;;;11.13;;
85820;SDS011;76265;50.102;8.854;2024-02-28T06:36:44;20.20;;;10.15;;
85820;SDS011;76265;50.102;8.854;2024-02-28T06:39:11;23.38;;;10.73;;
85820;SDS011;76265;50.102;8.854;2024-02-28T06:41:40;21.27;;;10.68;;
85820;SDS011;76265;50.102;8.854;2024-02-28T06:44:07;27.50;;;11.20;;
85820;SDS011;76265;50.102;8.854;2024-02-28T06:46:34;24.75;;;11.10;;
85820;SDS011;76265;50.102;8.854;2024-02-28T06:49:01;23.88;;;10.50;;
85820;SDS011;76265;50.102;8.854;2024-02-28T06:51:29;20.45;;;9.68;;
85820;SDS011;76265;50.102;8.854;2024-02-28T06:53:56;31.45;;;12.05;;
85820;SDS011;76265;50.102;8.854;2024-02-28T06:56:23;27.38;;;12.25;;
85820;SDS011;76265;50.102;8.854;2024-02-28T06:58:51;28.50;;;12.07;;
85820;SDS011;76265;50.102;8.854;2024-02-28T07:01:18;26.95;;;12.10;;
85820;SDS011;76265;50.102;8.854;2024-02-28T07:03:45;29.15;;;13.55;;
85820;SDS011;76265;50.102;8.854;2024-02-28T07:06:12;35.55;;;13.65;;
85820;SDS011;76265;50.102;8.854;2024-02-28T07:08:39;26.75;;;12.43;;
85820;SDS011;76265;50.102;8.854;2024-02-28T07:11:12;32.97;;;12.50;;
85820;SDS011;76265;50.102;8.854;2024-02-28T07:13:39;31.95;;;13.13;;
85820;SDS011;76265;50.102;8.854;2024-02-28T07:16:08;39.00;;;15.18;;
85820;SDS011;76265;50.102;8.854;2024-02-28T07:18:35;25.58;;;12.93;;
85820;SDS011;76265;50.102;8.854;2024-02-28T07:21:02;39.00;;;14.40;;
85820;SDS011;76265;50.102;8.854;2024-02-28T07:23:32;33.38;;;13.30;;
85820;SDS011;76265;50.102;8.854;2024-02-28T07:25:59;29.25;;;12.75;;
85820;SDS011;76265;50.102;8.854;2024-02-28T07:28:26;31.38;;;14.93;;
85820;SDS011;76265;50.102;8.854;2024-02-28T07:30:53;31.33;;;14.52;;
85820;SDS011;76265;50.102;8.854;2024-02-28T07:33:21;30.75;;;13.35;;
85820;SDS011;76265;50.102;8.854;2024-02-28T07:35:49;25.75;;;13.50;;
85820;SDS011;76265;50.102;8.854;2024-02-28T07:38:18;30.27;;;12.57;;
85820;SDS011;76265;50.102;8.854;2024-02-28T07:40:47;33.88;;;14.18;;
85820;SDS011;76265;50.102;8.854;2024-02-28T07:43:14;28.67;;;13.98;;
85820;SDS011;76265;50.102;8.854;2024-02-28T07:45:41;27.38;;;11.73;;
85820;SDS011;76265;50.102;8.854;2024-02-28T07:48:08;30.38;;;12.52;;
85820;SDS011;76265;50.102;8.854;2024-02-28T07:50:36;34.85;;;14.00;;
85820;SDS011;76265;50.102;8.854;2024-02-28T07:53:03;26.85;;;12.38;;
85820;SDS011;76265;50.102;8.854;2024-02-28T07:55:30;24.80;;;10.82;;
85820;SDS011;76265;50.102;8.854;2024-02-28T07:57:58;26.88;;;11.25;;
85820;SDS011;76265;50.102;8.854;2024-02-28T08:00:25;25.23;;;12.35;;
85820;SDS011;76265;50.102;8.854;2024-02-28T08:02:52;24.42;;;11.07;;
85820;SDS011;76265;50.102;8.854;2024-02-28T08:05:19;23.17;;;11.07;;
85820;SDS011;76265;50.102;8.854;2024-02-28T08:07:47;24.25;;;11.10;;
85820;SDS011;76265;50.102;8.854;2024-02-28T08:10:14;23.50;;;11.85;;
85820;SDS011;76265;50.102;8.854;2024-02-28T08:12:41;21.45;;;10.77;;
85820;SDS011;76265;50.102;8.854;2024-02-28T08:15:08;24.45;;;12.20;;
85820;SDS011;76265;50.102;8.854;2024-02-28T08:17:36;24.95;;;11.30;;
85820;SDS011;76265;50.102;8.854;2024-02-28T08:20:03;25.27;;;11.25;;
85820;SDS011;76265;50.102;8.854;2024-02-28T08:22:31;24.25;;;12.10;;
85820;SDS011;76265;50.102;8.854;2024-02-28T08:25:01;25.65;;;10.05;;
85820;SDS011;76265;50.102;8.854;2024-02-28T08:27:28;20.85;;;10.27;;
85820;SDS011;76265;50.102;8.854;2024-02-28T08:29:55;28.05;;;10.90;;
85820;SDS011;76265;50.102;8.854;2024-02-28T08:32:22;21.48;;;10.10;;
85820;SDS011;76265;50.102;8.854;2024-02-28T08:34:49;23.02;;;9.82;;
85820;SDS011;76265;50.102;8.854;2024-02-28T08:37:16;26.40;;;10.48;;
85820;SDS011;76265;50.102;8.854;2024-02-28T08:39:43;22.70;;;10.63;;
85820;SDS011;76265;50.102;8.854;2024-02-28T08:42:11;28.73;;;11.50;;
85820;SDS011;76265;50.102;8.854;2024-02-28T08:44:38;22.05;;;10.55;;
85820;SDS011;76265;50.102;8.854;2024-02-28T08:47:05;17.52;;;9.32;;
85820;SDS011;76265;50.102;8.854;2024-02-28T08:49:34;16.10;;;7.75;;
85820;SDS011;76265;50.102;8.854;2024-02-28T08:52:01;22.38;;;8.82;;
85820;SDS011;76265;50.102;8.854;2024-02-28T08:54:28;20.88;;;9.82;;
85820;SDS011;76265;50.102;8.854;2024-02-28T08:56:56;20.00;;;8.50;;
85820;SDS011;76265;50.102;8.854;2024-02-28T08:59:24;14.77;;;7.95;;
85820;SDS011;76265;50.102;8.854;2024-02-28T09:01:51;22.20;;;10.10;;
85820;SDS011;76265;50.102;8.854;2024-02-28T09:04:18;14.73;;;7.95;;
85820;SDS011;76265;50.102;8.854;2024-02-28T09:06:45;17.00;;;8.77;;
85820;SDS011;76265;50.102;8.854;2024-02-28T09:09:12;19.13;;;8.77;;
85820;SDS011;76265;50.102;8.854;2024-02-28T09:11:40;19.92;;;9.38;;
85820;SDS011;76265;50.102;8.854;2024-02-28T09:14:06;20.73;;;9.38;;
85820;SDS011;76265;50.102;8.854;2024-02-28T09:16:35;20.17;;;9.13;;
85820;SDS011;76265;50.102;8.854;2024-02-28T09:19:02;20.58;;;9.88;;
85820;SDS011;76265;50.102;8.854;2024-02-28T09:21:30;18.08;;;8.93;;
85820;SDS011;76265;50.102;8.854;2024-02-28T09:23:57;18.75;;;9.95;;
85820;SDS011;76265;50.102;8.854;2024-02-28T09:26:24;19.08;;;9.63;;
85820;SDS011;76265;50.102;8.854;2024-02-28T09:28:52;20.40;;;9.32;;
85820;SDS011;76265;50.102;8.854;2024-02-28T09:31:19;22.17;;;10.43;;
85820;SDS011;76265;50.102;8.854;2024-02-28T09:33:48;23.08;;;9.50;;
85820;SDS011;76265;50.102;8.854;2024-02-28T09:36:15;19.67;;;9.20;;
85820;SDS011;76265;50.102;8.854;2024-02-28T09:38:42;18.60;;;8.82;;
85820;SDS011;76265;50.102;8.854;2024-02-28T09:41:14;16.33;;;8.50;;
85820;SDS011;76265;50.102;8.854;2024-02-28T09:43:42;23.23;;;9.32;;
85820;SDS011;76265;50.102;8.854;2024-02-28T09:46:09;16.92;;;8.43;;
85820;SDS011;76265;50.102;8.854;2024-02-28T09:48:38;16.23;;;8.68;;
85820;SDS011;76265;50.102;8.854;2024-02-28T09:51:08;17.58;;;7.90;;
85820;SDS011;76265;50.102;8.854;2024-02-28T09:53:35;14.20;;;7.88;;
85820;SDS011;76265;50.102;8.854;2024-02-28T09:56:04;17.48;;;8.10;;
85820;SDS011;76265;50.102;8.854;2024-02-28T09:58:33;13.75;;;8.00;;
85820;SDS011;76265;50.102;8.854;2024-02-28T10:01:01;17.92;;;8.23;;
85820;SDS011;76265;50.102;8.854;2024-02-28T10:03:30;14.05;;;7.80;;
85820;SDS011;76265;50.102;8.854;2024-02-28T10:05:58;15.77;;;8.10;;
85820;SDS011;76265;50.102;8.854;2024-02-28T10:08:27;15.65;;;7.20;;
85820;SDS011;76265;50.102;8.854;2024-02-28T10:10:54;16.20;;;7.90;;
85820;SDS011;76265;50.102;8.854;2024-02-28T10:13:23;16.65;;;7.95;;
85820;SDS011;76265;50.102;8.854;2024-02-28T10:15:50;18.95;;;8.43;;
85820;SDS011;76265;50.102;8.854;2024-02-28T10:18:17;15.63;;;7.38;;
85820;SDS011;76265;50.102;8.854;2024-02-28T10:20:44;17.77;;;8.68;;
85820;SDS011;76265;50.102;8.854;2024-02-28T10:23:11;17.58;;;8.23;;
85820;SDS011;76265;50.102;8.854;2024-02-28T10:25:43;13.35;;;7.25;;
85820;SDS011;76265;50.102;8.854;2024-02-28T10:28:11;17.88;;;8.10;;
85820;SDS011;76265;50.102;8.854;2024-02-28T10:30:39;15.85;;;8.18;;
85820;SDS011;76265;50.102;8.854;2024-02-28T10:33:10;16.67;;;8.80;;
85820;SDS011;76265;50.102;8.854;2024-02-28T10:35:38;15.32;;;7.85;;
85820;SDS011;76265;50.102;8.854;2024-02-28T10:38:06;20.65;;;9.52;;
85820;SDS011;76265;50.102;8.854;2024-02-28T10:40:33;20.63;;;8.70;;
85820;SDS011;76265;50.102;8.854;2024-02-28T10:43:01;15.60;;;7.53;;
85820;SDS011;76265;50.102;8.854;2024-02-28T10:45:30;17.70;;;7.80;;
85820;SDS011;76265;50.102;8.854;2024-02-28T10:47:58;16.55;;;7.75;;
85820;SDS011;76265;50.102;8.854;2024-02-28T10:50:25;17.27;;;8.13;;
85820;SDS011;76265;50.102;8.854;2024-02-28T10:52:52;18.33;;;7.78;;
85820;SDS011;76265;50.102;8.854;2024-02-28T10:55:21;14.60;;;6.63;;
85820;SDS011;76265;50.102;8.854;2024-02-28T10:57:50;21.63;;;8.43;;
85820;SDS011;76265;50.102;8.854;2024-02-28T11:00:26;20.23;;;8.73;;
85820;SDS011;76265;50.102;8.854;2024-02-28T11:02:54;16.17;;;7.95;;
85820;SDS011;76265;50.102;8.854;2024-02-28T11:05:22;18.23;;;8.73;;
85820;SDS011;76265;50.102;8.854;2024-02-28T11:07:51;20.40;;;8.77;;
85820;SDS011;76265;50.102;8.854;2024-02-28T11:10:18;22.60;;;9.25;;
85820;SDS011;76265;50.102;8.854;2024-02-28T11:12:54;20.35;;;8.32;;
85820;SDS011;76265;50.102;8.854;2024-02-28T11:15:24;18.27;;;9.85;;
85820;SDS011;76265;50.102;8.854;2024-02-28T11:17:53;18.08;;;8.13;;
85820;SDS011;76265;50.102;8.854;2024-02-28T11:20:20;20.23;;;9.40;;
85820;SDS011;76265;50.102;8.854;2024-02-28T11:22:48;16.65;;;8.63;;
85820;SDS011;76265;50.102;8.854;2024-02-28T11:25:23;18.73;;;8.93;;
85820;SDS011;76265;50.102;8.854;2024-02-28T11:27:50;19.45;;;8.75;;
85820;SDS011;76265;50.102;8.854;2024-02-28T11:30:17;18.90;;;9.02;;
85820;SDS011;76265;50.102;8.854;2024-02-28T11:32:44;14.90;;;7.97;;
85820;SDS011;76265;50.102;8.854;2024-02-28T11:35:13;16.95;;;9.48;;
85820;SDS011;76265;50.102;8.854;2024-02-28T11:37:40;14.57;;;8.35;;
85820;SDS011;76265;50.102;8.854;2024-02-28T11:40:07;16.67;;;8.85;;
85820;SDS011;76265;50.102;8.854;2024-02-28T11:42:35;15.82;;;9.13;;
85820;SDS011;76265;50.102;8.854;2024-02-28T11:45:03;14.57;;;8.85;;
85820;SDS011;76265;50.102;8.854;2024-02-28T11:47:31;14.85;;;9.07;;
85820;SDS011;76265;50.102;8.854;2024-02-28T11:49:58;15.98;;;8.77;;
85820;SDS011;76265;50.102;8.854;2024-02-28T11:52:27;16.80;;;8.18;;
85820;SDS011;76265;50.102;8.854;2024-02-28T11:54:56;16.73;;;9.98;;
85820;SDS011;76265;50.102;8.854;2024-02-28T11:57:23;18.60;;;9.57;;
85820;SDS011;76265;50.102;8.854;2024-02-28T11:59:51;15.32;;;9.40;;
85820;SDS011;76265;50.102;8.854;2024-02-28T12:02:18;13.82;;;9.10;;
85820;SDS011;76265;50.102;8.854;2024-02-28T12:04:45;15.18;;;9.07;;
85820;SDS011;76265;50.102;8.854;2024-02-28T12:07:15;14.75;;;9.35;;
85820;SDS011;76265;50.102;8.854;2024-02-28T12:09:44;17.08;;;9.80;;
85820;SDS011;76265;50.102;8.854;2024-02-28T12:12:11;14.32;;;8.85;;
85820;SDS011;76265;50.102;8.854;2024-02-28T12:14:39;17.23;;;10.27;;
85820;SDS011;76265;50.102;8.854;2024-02-28T12:17:07;16.83;;;10.50;;
85820;SDS011;76265;50.102;8.854;2024-02-28T12:19:34;16.48;;;9.68;;
85820;SDS011;76265;50.102;8.854;2024-02-28T12:22:02;16.08;;;9.57;;
85820;SDS011;76265;50.102;8.854;2024-02-28T12:24:31;15.43;;;9.35;;
85820;SDS011;76265;50.102;8.854;2024-02-28T12:26:59;14.43;;;9.32;;
85820;SDS011;76265;50.102;8.854;2024-02-28T12:29:26;15.10;;;10.40;;
85820;SDS011;76265;50.102;8.854;2024-02-28T12:31:53;14.23;;;9.13;;
85820;SDS011;76265;50.102;8.854;2024-02-28T12:34:20;17.48;;;10.45;;
85820;SDS011;76265;50.102;8.854;2024-02-28T12:36:47;14.95;;;9.00;;
85820;SDS011;76265;50.102;8.854;2024-02-28T12:39:14;16.13;;;9.90;;
85820;SDS011;76265;50.102;8.854;2024-02-28T12:41:41;13.05;;;8.95;;
85820;SDS011;76265;50.102;8.854;2024-02-28T12:44:10;18.67;;;9.70;;
85820;SDS011;76265;50.102;8.854;2024-02-28T12:46:37;13.70;;;9.23;;
85820;SDS011;76265;50.102;8.854;2024-02-28T12:49:04;13.77;;;8.93;;
85820;SDS011;76265;50.102;8.854;2024-02-28T12:51:37;14.30;;;9.88;;
85820;SDS011;76265;50.102;8.854;2024-02-28T12:54:06;16.83;;;9.75;;
85820;SDS011;76265;50.102;8.854;2024-02-28T12:56:33;13.05;;;9.32;;
85820;SDS011;76265;50.102;8.854;2024-02-28T12:59:01;12.70;;;8.95;;
85820;SDS011;76265;50.102;8.854;2024-02-28T13:01:29;13.55;;;8.93;;
85820;SDS011;76265;50.102;8.854;2024-02-28T13:03:56;13.85;;;9.45;;
85820;SDS011;76265;50.102;8.854;2024-02-28T13:06:23;18.88;;;10.48;;
85820;SDS011;76265;50.102;8.854;2024-02-28T13:08:51;15.63;;;9.38;;
85820;SDS011;76265;50.102;8.854;2024-02-28T13:11:18;14.90;;;9.20;;
85820;SDS011;76265;50.102;8.854;2024-02-28T13:13:47;13.27;;;9.63;;
85820;SDS011;76265;50.102;8.854;2024-02-28T13:16:14;10.15;;;7.28;;
85820;SDS011;76265;50.102;8.854;2024-02-28T13:18:43;13.98;;;8.07;;
85820;SDS011;76265;50.102;8.854;2024-02-28T13:21:10;14.73;;;9.20;;
85820;SDS011;76265;50.102;8.854;2024-02-28T13:23:38;12.00;;;7.72;;
85820;SDS011;76265;50.102;8.854;2024-02-28T13:26:05;11.15;;;7.28;;
85820;SDS011;76265;50.102;8.854;2024-02-28T13:28:33;10.85;;;6.88;;
85820;SDS011;76265;50.102;8.854;2024-02-28T13:31:01;11.27;;;7.90;;
85820;SDS011;76265;50.102;8.854;2024-02-28T13:33:30;11.55;;;7.30;;
85820;SDS011;76265;50.102;8.854;2024-02-28T13:35:58;6.65;;;5.90;;
85820;SDS011;76265;50.102;8.854;2024-02-28T13:38:26;9.02;;;6.30;;
85820;SDS011;76265;50.102;8.854;2024-02-28T13:40:52;10.38;;;6.68;;
85820;SDS011;76265;50.102;8.854;2024-02-28T13:43:19;9.52;;;6.70;;
85820;SDS011;76265;50.102;8.854;2024-02-28T13:45:47;11.68;;;6.78;;
85820;SDS011;76265;50.102;8.854;2024-02-28T13:48:15;12.20;;;7.85;;
85820;SDS011;76265;50.102;8.854;2024-02-28T13:50:44;11.15;;;7.40;;
85820;SDS011;76265;50.102;8.854;2024-02-28T13:53:12;10.20;;;6.65;;
85820;SDS011;76265;50.102;8.854;2024-02-28T13:55:41;8.57;;;6.68;;
85820;SDS011;76265;50.102;8.854;2024-02-28T13:58:10;9.30;;;6.15;;
85820;SDS011;76265;50.102;8.854;2024-02-28T14:00:37;7.93;;;5.97;;
85820;SDS011;76265;50.102;8.854;2024-02-28T14:03:05;8.35;;;5.80;;
85820;SDS011;76265;50.102;8.854;2024-02-28T14:05:32;8.80;;;6.10;;
85820;SDS011;76265;50.102;8.854;2024-02-28T14:07:59;11.98;;;6.50;;
85820;SDS011;76265;50.102;8.854;2024-02-28T14:10:30;8.93;;;5.90;;
85820;SDS011;76265;50.102;8.854;2024-02-28T14:12:58;9.88;;;6.20;;
85820;SDS011;76265;50.102;8.854;2024-02-28T14:15:25;8.10;;;5.60;;
85820;SDS011;76265;50.102;8.854;2024-02-28T14:17:52;10.20;;;5.57;;
85820;SDS011;76265;50.102;8.854;2024-02-28T14:20:19;8.85;;;5.50;;
85820;SDS011;76265;50.102;8.854;2024-02-28T14:22:46;7.85;;;5.30;;
85820;SDS011;76265;50.102;8.854;2024-02-28T14:25:14;9.32;;;6.10;;
85820;SDS011;76265;50.102;8.854;2024-02-28T14:27:43;7.38;;;4.90;;
85820;SDS011;76265;50.102;8.854;2024-02-28T14:30:12;8.23;;;5.53;;
85820;SDS011;76265;50.102;8.854;2024-02-28T14:32:40;8.40;;;5.05;;